createdAt,value
2023-05-14T00:01:03.267Z,45.04
2023-05-14T00:04:08.292Z,44.39
2023-05-14T00:07:13.215Z,44.45
2023-05-14T00:10:18.937Z,44.40
2023-05-14T00:13:25.797Z,44.45
2023-05-14T00:16:31.020Z,44.34
2023-05-14T00:19:36.760Z,44.49
2023-05-14T00:22:41.811Z,44.76
2023-05-14T00:25:48.018Z,44.86
2023-05-14T00:28:53.460Z,44.86
2023-05-14T00:31:59.800Z,45.05
2023-05-14T00:35:05.299Z,45.52
2023-05-14T00:38:10.845Z,45.54
2023-05-14T00:41:17.053Z,45.93
2023-05-14T00:44:22.087Z,46.40
2023-05-14T00:47:26.705Z,46.35
2023-05-14T00:50:30.860Z,46.19
2023-05-14T00:53:36.434Z,46.02
2023-05-14T00:56:41.292Z,45.76
2023-05-14T00:59:48.133Z,45.80
2023-05-14T01:02:53.747Z,46.47
2023-05-14T01:06:23.312Z,46.17
2023-05-14T01:09:42.352Z,46.40
2023-05-14T01:13:07.328Z,46.98
2023-05-14T01:16:12.937Z,46.82
2023-05-14T01:19:19.202Z,46.59
2023-05-14T01:22:25.543Z,46.21
2023-05-14T01:25:31.225Z,46.26
2023-05-14T01:28:43.874Z,46.05
2023-05-14T01:31:42.017Z,46.16
2023-05-14T01:34:31.457Z,46.53
2023-05-14T01:37:24.028Z,46.71
2023-05-14T01:40:24.812Z,47.04
2023-05-14T01:43:30.764Z,47.24
2023-05-14T01:46:36.494Z,47.52
2023-05-14T01:49:44.386Z,47.56
2023-05-14T01:52:50.149Z,47.66
2023-05-14T01:55:56.746Z,47.60
2023-05-14T01:59:03.178Z,47.47
2023-05-14T02:02:08.612Z,47.60
2023-05-14T02:05:14.194Z,47.73
2023-05-14T02:08:12.972Z,47.61
2023-05-14T02:11:19.682Z,48.03
2023-05-14T02:14:25.593Z,48.24
2023-05-14T02:17:30.838Z,48.28
2023-05-14T02:20:37.208Z,48.27
2023-05-14T02:23:42.851Z,47.98
2023-05-14T02:26:47.929Z,47.47
2023-05-14T02:29:54.749Z,47.13
2023-05-14T02:33:02.094Z,47.31
2023-05-14T02:36:08.386Z,47.14
2023-05-14T02:39:14.958Z,46.94
2023-05-14T02:42:21.590Z,47.10
2023-05-14T02:45:28.517Z,46.91
2023-05-14T02:48:34.989Z,46.89
2023-05-14T02:51:40.801Z,46.62
2023-05-14T02:54:46.678Z,46.87
2023-05-14T02:57:51.806Z,47.43
2023-05-14T03:00:57.013Z,47.54
2023-05-14T03:04:03.088Z,47.83
2023-05-14T03:07:09.154Z,47.60
2023-05-14T03:10:15.252Z,47.72
2023-05-14T03:13:23.816Z,47.75
2023-05-14T03:16:29.513Z,48.93
2023-05-14T03:19:35.170Z,48.42
2023-05-14T03:22:41.872Z,47.25
2023-05-14T03:25:47.557Z,46.49
2023-05-14T03:28:49.090Z,46.02
2023-05-14T03:31:47.759Z,45.49
2023-05-14T03:34:53.621Z,45.62
2023-05-14T03:38:00.162Z,44.26
2023-05-14T03:41:06.662Z,44.05
2023-05-14T03:44:12.600Z,44.61
2023-05-14T03:47:17.419Z,44.37
2023-05-14T03:50:25.036Z,43.87
2023-05-14T03:53:30.743Z,43.62
2023-05-14T03:56:36.979Z,42.23
2023-05-14T03:59:42.794Z,41.98
2023-05-14T04:02:49.338Z,41.43
2023-05-14T04:05:57.108Z,40.09
2023-05-14T04:09:02.570Z,39.81
2023-05-14T04:12:08.420Z,39.83
2023-05-14T04:15:15.398Z,39.69
2023-05-14T04:18:22.220Z,39.96
2023-05-14T04:21:28.762Z,39.28
2023-05-14T04:24:27.375Z,38.61
2023-05-14T04:27:37.037Z,38.68
2023-05-14T04:30:43.027Z,38.13
2023-05-14T04:33:49.396Z,38.52
2023-05-14T04:36:54.612Z,39.06
2023-05-14T04:40:00.797Z,38.59
2023-05-14T04:43:07.116Z,37.83
2023-05-14T04:46:13.336Z,38.24
2023-05-14T04:49:19.742Z,38.12
2023-05-14T04:52:25.540Z,37.21
2023-05-14T04:55:33.098Z,38.73
2023-05-14T04:58:39.643Z,38.07
2023-05-14T05:01:45.918Z,36.83
2023-05-14T05:04:52.044Z,36.02
2023-05-14T05:07:58.570Z,36.06
2023-05-14T05:11:04.498Z,36.26
2023-05-14T05:14:10.699Z,36.14
2023-05-14T05:17:16.091Z,36.46
2023-05-14T05:20:24.189Z,35.92
2023-05-14T05:23:30.662Z,35.68
2023-05-14T05:26:35.830Z,36.92
2023-05-14T05:29:41.681Z,35.86
2023-05-14T05:32:47.129Z,35.71
2023-05-14T05:35:52.576Z,34.65
2023-05-14T05:38:59.270Z,33.47
2023-05-14T05:42:04.760Z,33.23
2023-05-14T05:45:09.970Z,32.58
2023-05-14T05:48:16.374Z,32.16
2023-05-14T05:51:22.184Z,32.42
2023-05-14T05:54:27.521Z,32.59
2023-05-14T05:57:33.494Z,32.43
2023-05-14T06:00:39.550Z,31.38
2023-05-14T06:03:45.303Z,31.05
2023-05-14T06:06:51.094Z,30.75
2023-05-14T06:09:56.488Z,30.13
2023-05-14T06:13:03.006Z,29.58
2023-05-14T06:16:08.918Z,29.59
2023-05-14T06:19:16.514Z,29.27
2023-05-14T06:22:22.874Z,29.05
2023-05-14T06:25:28.865Z,28.00
2023-05-14T06:28:34.658Z,28.13
2023-05-14T06:31:41.276Z,27.85
2023-05-14T06:34:47.403Z,27.38
2023-05-14T06:37:53.494Z,26.79
2023-05-14T06:41:02.829Z,27.17
2023-05-14T06:44:08.775Z,26.49
2023-05-14T06:47:14.906Z,26.97
2023-05-14T06:50:22.145Z,26.72
2023-05-14T06:53:28.534Z,28.34
2023-05-14T06:56:35.050Z,29.99
2023-05-14T06:59:41.872Z,28.20
2023-05-14T07:02:47.974Z,28.23
2023-05-14T07:05:47.511Z,28.10
2023-05-14T07:08:53.283Z,29.68
2023-05-14T07:11:58.946Z,28.45
2023-05-14T07:15:04.411Z,29.55
2023-05-14T07:18:09.625Z,29.10
2023-05-14T07:21:15.251Z,28.14
2023-05-14T07:24:20.834Z,26.98
2023-05-14T07:27:26.243Z,27.60
2023-05-14T07:30:31.956Z,27.79
2023-05-14T07:33:38.664Z,29.00
2023-05-14T07:36:44.438Z,28.49
2023-05-14T07:39:49.988Z,27.90
2023-05-14T07:42:56.797Z,26.89
2023-05-14T07:46:02.782Z,27.21
2023-05-14T07:49:07.812Z,27.41
2023-05-14T07:52:12.880Z,27.99
2023-05-14T07:55:19.448Z,26.78
2023-05-14T07:58:26.153Z,26.94
2023-05-14T08:01:32.062Z,27.34
2023-05-14T08:04:44.905Z,27.86
2023-05-14T08:07:50.298Z,27.55
2023-05-14T08:10:56.469Z,27.66
2023-05-14T08:13:55.791Z,27.46
2023-05-14T08:17:01.999Z,28.05
2023-05-14T08:20:09.470Z,25.32
2023-05-14T08:23:16.010Z,25.07
2023-05-14T08:26:21.345Z,26.73
2023-05-14T08:29:26.859Z,27.00
2023-05-14T08:32:32.280Z,26.51
2023-05-14T08:35:38.410Z,26.62
2023-05-14T08:38:44.086Z,25.94
2023-05-14T08:41:49.865Z,26.68
2023-05-14T08:45:00.918Z,25.86
2023-05-14T08:48:06.688Z,26.81
2023-05-14T08:51:12.273Z,24.09
2023-05-14T08:54:20.502Z,23.96
2023-05-14T08:57:25.531Z,25.93
2023-05-14T09:00:31.450Z,25.62
2023-05-14T09:03:36.574Z,24.97
2023-05-14T09:06:43.074Z,24.74
2023-05-14T09:09:48.721Z,24.51
2023-05-14T09:12:54.530Z,25.36
2023-05-14T09:15:59.580Z,24.49
2023-05-14T09:19:05.145Z,23.56
2023-05-14T09:22:12.575Z,22.98
2023-05-14T09:25:21.720Z,23.34
2023-05-14T09:28:27.796Z,23.29
2023-05-14T09:31:34.012Z,24.04
2023-05-14T09:34:40.761Z,23.41
2023-05-14T09:37:50.156Z,24.13
2023-05-14T09:40:56.127Z,24.16
2023-05-14T09:44:06.577Z,23.04
2023-05-14T09:47:11.714Z,22.68
2023-05-14T09:50:17.280Z,24.06
2023-05-14T09:53:24.126Z,24.71
2023-05-14T09:56:30.938Z,24.77
2023-05-14T09:59:36.964Z,23.57
2023-05-14T10:02:53.030Z,23.73
2023-05-14T10:05:58.059Z,23.56
2023-05-14T10:09:04.187Z,24.15
2023-05-14T10:12:09.532Z,24.44
2023-05-14T10:15:19.560Z,23.75
2023-05-14T10:18:26.911Z,23.23
2023-05-14T10:21:34.616Z,23.45
2023-05-14T10:24:40.243Z,23.44
2023-05-14T10:27:46.405Z,23.26
2023-05-14T10:30:58.001Z,23.47
2023-05-14T10:34:04.174Z,23.39
2023-05-14T10:37:08.765Z,24.56
2023-05-14T10:40:18.673Z,24.63
2023-05-14T10:43:24.464Z,24.06
2023-05-14T10:46:29.740Z,23.55
2023-05-14T10:49:43.029Z,23.36
2023-05-14T10:52:42.600Z,22.46
2023-05-14T10:55:47.821Z,24.52
2023-05-14T10:58:54.414Z,23.26
2023-05-14T11:01:59.980Z,23.19
2023-05-14T11:05:16.206Z,23.10
2023-05-14T11:08:23.956Z,24.64
2023-05-14T11:11:29.014Z,25.65
2023-05-14T11:14:34.931Z,26.00
2023-05-14T11:17:42.099Z,26.16
2023-05-14T11:20:47.536Z,26.20
2023-05-14T11:23:53.409Z,26.31
2023-05-14T11:26:59.152Z,25.84
2023-05-14T11:30:05.276Z,26.80
2023-05-14T11:33:11.078Z,25.74
2023-05-14T11:36:18.102Z,24.85
2023-05-14T11:39:25.863Z,24.03
2023-05-14T11:42:33.078Z,24.57
2023-05-14T11:45:36.597Z,24.47
2023-05-14T11:48:42.502Z,25.25
2023-05-14T11:51:47.197Z,23.88
2023-05-14T11:54:52.865Z,23.77
2023-05-14T11:57:58.940Z,24.43
2023-05-14T12:01:06.969Z,24.03
2023-05-14T12:04:11.731Z,24.06
2023-05-14T12:07:25.764Z,23.60
2023-05-14T12:10:25.573Z,23.45
2023-05-14T12:13:33.251Z,23.74
2023-05-14T12:16:39.419Z,23.39
2023-05-14T12:19:45.770Z,24.67
2023-05-14T12:22:51.268Z,24.51
2023-05-14T12:26:05.605Z,24.03
2023-05-14T12:29:17.216Z,23.55
2023-05-14T12:32:27.088Z,24.00
2023-05-14T12:35:32.420Z,25.23
2023-05-14T12:38:37.999Z,25.75
2023-05-14T12:41:52.080Z,25.56
2023-05-14T12:44:58.797Z,25.12
2023-05-14T12:48:05.001Z,23.48
2023-05-14T12:51:10.949Z,22.14
2023-05-14T12:54:17.955Z,23.44
2023-05-14T12:57:23.468Z,22.22
2023-05-14T13:00:30.205Z,22.35
2023-05-14T13:03:35.979Z,22.52
2023-05-14T13:06:35.262Z,22.63
2023-05-14T13:09:41.178Z,22.83
2023-05-14T13:12:46.868Z,22.54
2023-05-14T13:15:53.678Z,25.15
2023-05-14T13:18:59.226Z,25.91
2023-05-14T13:22:04.859Z,26.35
2023-05-14T13:25:09.977Z,25.49
2023-05-14T13:28:16.420Z,26.08
2023-05-14T13:31:26.153Z,27.22
2023-05-14T13:34:32.409Z,26.03
2023-05-14T13:37:33.316Z,26.42
2023-05-14T13:40:38.902Z,26.10
2023-05-14T13:43:46.623Z,26.23
2023-05-14T13:46:51.620Z,26.52
2023-05-14T13:49:58.130Z,25.62
2023-05-14T13:53:04.274Z,25.25
2023-05-14T13:56:09.857Z,25.65
2023-05-14T13:59:14.847Z,25.16
2023-05-14T14:02:21.640Z,24.58
2023-05-14T14:05:27.737Z,24.44
2023-05-14T14:08:33.367Z,24.68
2023-05-14T14:11:39.210Z,24.07
2023-05-14T14:14:45.014Z,24.53
2023-05-14T14:17:50.187Z,24.03
2023-05-14T14:20:55.480Z,23.76
2023-05-14T14:24:04.239Z,24.98
2023-05-14T14:27:13.985Z,24.86
2023-05-14T14:30:23.945Z,24.77
2023-05-14T14:33:28.949Z,24.66
2023-05-14T14:36:37.043Z,25.01
2023-05-14T14:39:43.631Z,25.63
2023-05-14T14:42:51.238Z,25.88
2023-05-14T14:45:56.125Z,25.86
2023-05-14T14:49:01.618Z,25.73
2023-05-14T14:52:06.409Z,25.73
2023-05-14T14:55:12.115Z,25.65
2023-05-14T14:58:17.744Z,25.68
2023-05-14T15:01:24.154Z,25.93
2023-05-14T15:04:29.793Z,25.41
2023-05-14T15:07:37.190Z,26.17
2023-05-14T15:10:45.118Z,26.78
2023-05-14T15:13:50.309Z,26.57
2023-05-14T15:16:56.042Z,26.10
2023-05-14T15:20:02.649Z,25.89
2023-05-14T15:23:07.605Z,26.41
2023-05-14T15:26:13.167Z,26.28
2023-05-14T15:29:18.768Z,26.55
2023-05-14T15:32:23.454Z,27.32
2023-05-14T15:35:29.334Z,28.35
2023-05-14T15:38:35.542Z,28.57
2023-05-14T15:41:40.739Z,29.88
2023-05-14T15:44:47.354Z,29.99
2023-05-14T15:47:54.059Z,30.26
2023-05-14T15:50:59.548Z,30.55
2023-05-14T15:54:04.807Z,30.88
2023-05-14T15:57:11.458Z,31.37
2023-05-14T16:00:20.672Z,31.57
2023-05-14T16:03:25.573Z,31.34
2023-05-14T16:06:31.256Z,31.54
2023-05-14T16:09:37.139Z,31.88
2023-05-14T16:12:43.081Z,32.25
2023-05-14T16:15:48.333Z,32.68
2023-05-14T16:18:54.514Z,33.26
2023-05-14T16:21:59.550Z,33.61
2023-05-14T16:25:04.880Z,34.36
2023-05-14T16:28:11.131Z,34.44
2023-05-14T16:31:16.488Z,34.40
2023-05-14T16:34:21.717Z,34.71
2023-05-14T16:37:27.897Z,35.04
2023-05-14T16:40:33.667Z,35.50
2023-05-14T16:43:38.809Z,34.77
2023-05-14T16:46:44.437Z,34.54
2023-05-14T16:49:50.450Z,34.57
2023-05-14T16:52:56.022Z,34.72
2023-05-14T16:56:01.501Z,34.84
2023-05-14T16:59:06.909Z,34.97
2023-05-14T17:02:12.820Z,35.68
2023-05-14T17:05:18.722Z,36.67
2023-05-14T17:08:24.731Z,37.08
2023-05-14T17:11:30.340Z,37.33
2023-05-14T17:14:35.938Z,37.63
2023-05-14T17:17:41.632Z,38.34
2023-05-14T17:20:47.388Z,38.16
2023-05-14T17:23:53.549Z,38.01
2023-05-14T17:26:59.188Z,37.94
2023-05-14T17:30:05.479Z,38.27
2023-05-14T17:33:11.793Z,38.35
2023-05-14T17:36:17.414Z,38.51
2023-05-14T17:39:22.693Z,38.61
2023-05-14T17:42:28.460Z,39.00
2023-05-14T17:45:42.705Z,39.23
2023-05-14T17:48:41.173Z,39.10
2023-05-14T17:51:47.374Z,40.44
2023-05-14T17:54:53.429Z,40.77
2023-05-14T17:57:58.745Z,41.11
2023-05-14T18:01:04.044Z,41.48
2023-05-14T18:04:08.776Z,41.92
2023-05-14T18:07:14.017Z,41.99
2023-05-14T18:10:20.436Z,42.08
2023-05-14T18:13:26.063Z,42.22
2023-05-14T18:16:31.679Z,42.55
2023-05-14T18:19:37.656Z,43.10
2023-05-14T18:22:43.163Z,43.30
2023-05-14T18:25:48.849Z,43.27
2023-05-14T18:28:54.832Z,43.89
2023-05-14T18:32:00.496Z,44.29
2023-05-14T18:35:08.397Z,44.70
2023-05-14T18:38:14.912Z,44.71
2023-05-14T18:41:21.703Z,45.50
2023-05-14T18:44:27.152Z,45.37
2023-05-14T18:47:32.178Z,44.56
2023-05-14T18:50:39.371Z,44.34
2023-05-14T18:53:46.269Z,44.27
2023-05-14T18:56:52.397Z,44.27
2023-05-14T18:59:59.051Z,44.10
2023-05-14T19:03:05.694Z,44.36
2023-05-14T19:06:11.138Z,44.88
2023-05-14T19:09:11.002Z,44.56
2023-05-14T19:12:16.608Z,44.48
2023-05-14T19:15:22.730Z,44.53
2023-05-14T19:18:28.683Z,44.44
2023-05-14T19:21:34.540Z,44.43
2023-05-14T19:24:44.013Z,44.26
2023-05-14T19:27:48.985Z,44.39
2023-05-14T19:30:57.950Z,44.33
2023-05-14T19:34:04.789Z,44.48
2023-05-14T19:37:12.184Z,44.37
2023-05-14T19:40:18.467Z,44.27
2023-05-14T19:43:24.451Z,44.34
2023-05-14T19:46:30.903Z,44.31
2023-05-14T19:49:36.901Z,44.38
2023-05-14T19:52:42.197Z,44.41
2023-05-14T19:55:48.940Z,44.56
2023-05-14T19:58:54.689Z,44.47
2023-05-14T20:02:01.668Z,44.72
2023-05-14T20:05:07.785Z,44.68
2023-05-14T20:08:15.027Z,44.75
2023-05-14T20:11:22.149Z,44.68
2023-05-14T20:14:27.711Z,44.62
2023-05-14T20:17:33.077Z,44.57
2023-05-14T20:20:38.466Z,44.66
2023-05-14T20:23:44.067Z,44.60
2023-05-14T20:26:49.070Z,44.54
2023-05-14T20:29:56.828Z,44.43
2023-05-14T20:33:02.668Z,44.48
2023-05-14T20:36:10.370Z,44.66
2023-05-14T20:39:18.158Z,44.78
2023-05-14T20:42:24.036Z,44.97
2023-05-14T20:45:23.076Z,45.77
2023-05-14T20:48:11.650Z,45.82
2023-05-14T20:51:03.380Z,46.04
2023-05-14T20:53:49.436Z,46.60
2023-05-14T20:56:43.721Z,46.15
2023-05-14T20:59:49.081Z,46.89
2023-05-14T21:02:56.228Z,47.06
2023-05-14T21:06:03.510Z,46.37
2023-05-14T21:09:08.351Z,46.36
2023-05-14T21:12:14.363Z,46.59
2023-05-14T21:15:20.899Z,46.78
2023-05-14T21:18:27.298Z,46.89
2023-05-14T21:21:32.761Z,47.09
2023-05-14T21:24:38.738Z,47.40
2023-05-14T21:27:44.625Z,47.32
2023-05-14T21:30:49.967Z,47.57
2023-05-14T21:33:55.752Z,47.79
2023-05-14T21:37:01.658Z,47.95
2023-05-14T21:40:07.260Z,47.97
2023-05-14T21:43:12.221Z,47.40
2023-05-14T21:46:17.758Z,46.88
2023-05-14T21:49:23.112Z,46.94
2023-05-14T21:52:27.716Z,47.13
2023-05-14T21:55:33.860Z,47.12
2023-05-14T21:58:41.401Z,47.23
2023-05-14T22:02:05.498Z,47.20
2023-05-14T22:04:55.193Z,46.81
2023-05-14T22:08:01.114Z,47.01
2023-05-14T22:11:06.877Z,47.13
2023-05-14T22:14:12.819Z,47.37
2023-05-14T22:17:18.674Z,47.82
2023-05-14T22:20:24.144Z,48.27
2023-05-14T22:23:28.959Z,48.29
2023-05-14T22:26:34.040Z,49.54
2023-05-14T22:29:39.983Z,50.00
2023-05-14T22:32:45.810Z,49.83
2023-05-14T22:35:50.846Z,50.06
2023-05-14T22:38:55.933Z,49.97
2023-05-14T22:42:01.508Z,50.28
2023-05-14T22:45:06.177Z,50.68
2023-05-14T22:48:12.235Z,51.33
2023-05-14T22:51:17.693Z,54.29
2023-05-14T22:54:23.687Z,55.05
2023-05-14T22:57:30.105Z,55.87
2023-05-14T23:00:35.536Z,56.22
2023-05-14T23:03:42.121Z,56.77
2023-05-14T23:06:41.039Z,57.47
2023-05-14T23:09:33.845Z,57.54
2023-05-14T23:12:38.979Z,57.69
2023-05-14T23:15:45.424Z,57.82
2023-05-14T23:18:51.331Z,58.17
2023-05-14T23:21:58.282Z,58.08
2023-05-14T23:25:04.121Z,57.54
2023-05-14T23:28:11.417Z,56.73
2023-05-14T23:31:17.159Z,55.72
2023-05-14T23:34:22.672Z,55.38
2023-05-14T23:37:28.748Z,55.20
2023-05-14T23:40:34.413Z,55.05
2023-05-14T23:43:40.776Z,54.66
2023-05-14T23:46:47.426Z,54.54
2023-05-14T23:49:52.437Z,54.38
2023-05-14T23:52:59.219Z,53.83
2023-05-14T23:56:04.549Z,53.66
2023-05-14T23:59:10.651Z,54.01
